createdAt,value
2019-05-01T00:02:44.583Z,102134.83
2019-05-01T00:05:19.041Z,102141.50
2019-05-01T00:07:46.143Z,102137.98
2019-05-01T00:10:17.961Z,102138.87
2019-05-01T00:12:45.084Z,102134.05
2019-05-01T00:15:12.649Z,102117.89
2019-05-01T00:17:39.713Z,102117.89
2019-05-01T00:20:07.277Z,102128.37
2019-05-01T00:22:34.344Z,102125.48
2019-05-01T00:25:01.740Z,102120.16
2019-05-01T00:27:28.864Z,102116.54
2019-05-01T00:29:56.012Z,102110.17
2019-05-01T00:32:23.042Z,102099.91
2019-05-01T00:34:50.092Z,102104.21
2019-05-01T00:37:17.160Z,102101.48
2019-05-01T00:39:44.190Z,102097.95
2019-05-01T00:42:11.244Z,102099.11
2019-05-01T00:44:40.321Z,102094.17
2019-05-01T00:47:07.381Z,102089.84
2019-05-01T00:49:34.467Z,102095.99
2019-05-01T00:52:01.550Z,102089.26
2019-05-01T00:54:29.991Z,102089.26
2019-05-01T00:57:22.553Z,102082.43
2019-05-01T00:59:59.822Z,102089.10
2019-05-01T01:02:38.896Z,102083.34
2019-05-01T01:05:10.678Z,102083.34
2019-05-01T01:07:37.831Z,102082.30
2019-05-01T01:10:05.896Z,102083.45
2019-05-01T01:12:32.973Z,102081.47
2019-05-01T01:15:03.904Z,102072.52
2019-05-01T01:17:30.987Z,102070.63
2019-05-01T01:19:58.049Z,102070.31
2019-05-01T01:22:25.105Z,102067.33
2019-05-01T01:24:52.906Z,102060.11
2019-05-01T01:27:23.391Z,102065.44
2019-05-01T01:29:50.485Z,102070.89
2019-05-01T01:32:25.462Z,102061.65
2019-05-01T01:34:52.539Z,102063.48
2019-05-01T01:37:19.658Z,102055.62
2019-05-01T01:39:47.547Z,102051.94
2019-05-01T01:42:14.796Z,102054.02
2019-05-01T01:44:51.509Z,102053.70
2019-05-01T01:47:18.646Z,102053.61
2019-05-01T01:49:45.684Z,102051.14
2019-05-01T01:52:14.102Z,102043.19
2019-05-01T01:54:41.185Z,102031.94
2019-05-01T01:57:08.235Z,102041.04
2019-05-01T01:59:35.481Z,102034.98
2019-05-01T02:02:22.211Z,102032.99
2019-05-01T02:05:10.521Z,102027.64
2019-05-01T02:07:37.829Z,102027.64
2019-05-01T02:10:06.808Z,102028.53
2019-05-01T02:12:35.350Z,102023.95
2019-05-01T02:15:02.438Z,102019.69
2019-05-01T02:17:29.510Z,102022.31
2019-05-01T02:19:56.587Z,102018.12
2019-05-01T02:22:23.630Z,102018.85
2019-05-01T02:24:50.680Z,102015.55
2019-05-01T02:27:23.817Z,102017.70
2019-05-01T02:29:54.243Z,102011.96
2019-05-01T02:32:23.674Z,102017.05
2019-05-01T02:34:52.026Z,102013.69
2019-05-01T02:37:19.886Z,102010.13
2019-05-01T02:39:48.231Z,102015.90
2019-05-01T02:42:17.295Z,102009.33
2019-05-01T02:44:48.311Z,102007.38
2019-05-01T02:47:22.348Z,102007.38
2019-05-01T02:49:57.246Z,102006.38
2019-05-01T02:52:28.383Z,102011.80
2019-05-01T02:55:00.359Z,102012.95
2019-05-01T02:57:28.354Z,102007.85
2019-05-01T02:59:57.103Z,102007.69
2019-05-01T03:02:25.772Z,102006.29
2019-05-01T03:04:54.515Z,102001.54
2019-05-01T03:07:23.484Z,101999.03
2019-05-01T03:09:51.215Z,101999.09
2019-05-01T03:12:21.060Z,101999.33
2019-05-01T03:14:50.484Z,101998.75
2019-05-01T03:17:40.919Z,101991.92
2019-05-01T03:20:39.961Z,102002.28
2019-05-01T03:23:40.075Z,102000.45
2019-05-01T03:26:07.195Z,101998.41
2019-05-01T03:28:34.201Z,102007.34
2019-05-01T03:31:01.583Z,101994.84
2019-05-01T03:33:29.217Z,101996.42
2019-05-01T03:35:56.237Z,101995.68
2019-05-01T03:38:23.674Z,101988.11
2019-05-01T03:40:51.179Z,101983.53
2019-05-01T03:43:18.901Z,101988.27
2019-05-01T03:45:45.981Z,101992.58
2019-05-01T03:48:13.127Z,101990.52
2019-05-01T03:50:40.442Z,101988.95
2019-05-01T03:53:07.907Z,101988.47
2019-05-01T03:55:35.741Z,101975.91
2019-05-01T03:58:03.456Z,101979.91
2019-05-01T04:00:56.028Z,101980.33
2019-05-01T04:03:27.739Z,101986.00
2019-05-01T04:05:55.260Z,101979.91
2019-05-01T04:08:23.202Z,101985.17
2019-05-01T04:10:50.329Z,101982.48
2019-05-01T04:13:17.590Z,101976.29
2019-05-01T04:15:44.983Z,101973.50
2019-05-01T04:18:12.246Z,101981.41
2019-05-01T04:20:39.680Z,101978.27
2019-05-01T04:23:06.956Z,101980.58
2019-05-01T04:25:34.527Z,101974.84
2019-05-01T04:28:21.596Z,101974.83
2019-05-01T04:31:01.713Z,101978.13
2019-05-01T04:33:30.037Z,101972.78
2019-05-01T04:36:03.124Z,101972.37
2019-05-01T04:38:30.276Z,101976.05
2019-05-01T04:40:57.359Z,101976.79
2019-05-01T04:43:24.857Z,101976.80
2019-05-01T04:45:52.014Z,101970.71
2019-05-01T04:48:20.061Z,101974.65
2019-05-01T04:50:47.592Z,101973.27
2019-05-01T04:53:14.644Z,101971.38
2019-05-01T04:55:41.905Z,101972.84
2019-05-01T04:58:09.226Z,101976.16
2019-05-01T05:00:36.613Z,101969.23
2019-05-01T05:03:08.062Z,101971.72
2019-05-01T05:05:36.210Z,101971.37
2019-05-01T05:08:03.341Z,101968.98
2019-05-01T05:10:30.839Z,101973.70
2019-05-01T05:13:16.043Z,101973.70
2019-05-01T05:16:00.965Z,101973.52
2019-05-01T05:18:28.401Z,101967.34
2019-05-01T05:20:56.652Z,101968.33
2019-05-01T05:23:23.694Z,101966.53
2019-05-01T05:25:51.316Z,101968.75
2019-05-01T05:28:22.374Z,101967.92
2019-05-01T05:30:50.935Z,101969.64
2019-05-01T05:33:19.056Z,101973.34
2019-05-01T05:35:48.813Z,101977.38
2019-05-01T05:38:26.225Z,101963.98
2019-05-01T05:40:53.764Z,101976.06
2019-05-01T05:43:21.339Z,101971.23
2019-05-01T05:45:48.591Z,101963.84
2019-05-01T05:48:15.945Z,101963.84
2019-05-01T05:51:00.544Z,101965.23
2019-05-01T05:53:31.953Z,101964.15
2019-05-01T05:56:02.517Z,101963.67
2019-05-01T05:58:37.023Z,101965.23
2019-05-01T06:01:25.058Z,101969.83
2019-05-01T06:04:13.913Z,101962.84
2019-05-01T06:06:52.710Z,101964.63
2019-05-01T06:09:23.601Z,101957.09
2019-05-01T06:12:10.118Z,101964.59
2019-05-01T06:15:06.480Z,101961.86
2019-05-01T06:17:59.159Z,101965.48
2019-05-01T06:20:40.144Z,101962.02
2019-05-01T06:23:20.731Z,101961.95
2019-05-01T06:25:54.335Z,101959.33
2019-05-01T06:28:24.965Z,101961.63
2019-05-01T06:30:49.330Z,101955.69
2019-05-01T06:33:16.395Z,101957.92
2019-05-01T06:35:43.974Z,101953.98
2019-05-01T06:38:14.892Z,101953.98
2019-05-01T06:40:46.049Z,101951.84
2019-05-01T06:43:34.752Z,101956.26
2019-05-01T06:46:27.300Z,101958.91
2019-05-01T06:48:57.141Z,101955.19
2019-05-01T06:51:41.086Z,101959.97
2019-05-01T06:54:11.328Z,101951.53
2019-05-01T06:56:41.473Z,101956.67
2019-05-01T06:59:09.362Z,101954.31
2019-05-01T07:01:36.716Z,101960.56
2019-05-01T07:04:06.475Z,101962.36
2019-05-01T07:06:33.831Z,101955.92
2019-05-01T07:09:01.067Z,101955.92
2019-05-01T07:11:28.302Z,101953.59
2019-05-01T07:13:56.076Z,101955.33
2019-05-01T07:16:23.135Z,101949.97
2019-05-01T07:18:52.813Z,101949.01
2019-05-01T07:21:22.813Z,101951.47
2019-05-01T07:23:52.239Z,101946.47
2019-05-01T07:26:18.341Z,101944.59
2019-05-01T07:28:47.327Z,101957.86
2019-05-01T07:31:20.771Z,101952.84
2019-05-01T07:33:51.294Z,101950.81
2019-05-01T07:36:16.966Z,101944.41
2019-05-01T07:38:45.018Z,101950.48
2019-05-01T07:41:12.472Z,101945.01
2019-05-01T07:43:47.724Z,101947.37
2019-05-01T07:47:04.671Z,101941.52
2019-05-01T07:50:08.566Z,101941.52
2019-05-01T07:52:36.241Z,101940.59
2019-05-01T07:55:04.642Z,101937.38
2019-05-01T07:57:34.311Z,101936.73
2019-05-01T08:00:03.718Z,101938.64
2019-05-01T08:02:31.175Z,101937.33
2019-05-01T08:04:59.222Z,101937.23
2019-05-01T08:07:52.199Z,101940.11
2019-05-01T08:10:02.295Z,101934.37
2019-05-01T08:12:38.250Z,101933.86
2019-05-01T08:15:05.564Z,101941.57
2019-05-01T08:17:35.953Z,101937.45
2019-05-01T08:20:15.044Z,101937.02
2019-05-01T08:22:43.256Z,101936.36
2019-05-01T08:25:33.093Z,101942.43
2019-05-01T08:28:20.578Z,101944.17
2019-05-01T08:30:59.443Z,101947.97
2019-05-01T08:34:02.753Z,101944.79
2019-05-01T08:36:29.998Z,101943.94
2019-05-01T08:39:09.255Z,101938.97
2019-05-01T08:41:44.989Z,101952.02
2019-05-01T08:44:35.064Z,101943.84
2019-05-01T08:47:25.883Z,101942.91
2019-05-01T08:50:19.885Z,101943.52
2019-05-01T08:52:47.491Z,101945.34
2019-05-01T08:55:20.377Z,101944.84
2019-05-01T08:57:47.606Z,101939.23
2019-05-01T09:00:16.161Z,101941.77
2019-05-01T09:08:12.299Z,101940.50
2019-05-01T09:10:39.351Z,101937.25
2019-05-01T09:13:06.454Z,101935.80
2019-05-01T09:15:33.510Z,101937.48
2019-05-01T09:18:00.625Z,101927.70
2019-05-01T09:20:31.943Z,101933.39
2019-05-01T09:22:59.097Z,101925.94
2019-05-01T09:25:35.385Z,101927.39
2019-05-01T09:28:10.944Z,101929.27
2019-05-01T09:30:42.118Z,101922.02
2019-05-01T09:33:16.125Z,101926.86
2019-05-01T09:35:45.228Z,101920.00
2019-05-01T09:40:59.234Z,101919.78
2019-05-01T09:43:26.358Z,101921.12
2019-05-01T09:45:56.600Z,101917.22
2019-05-01T09:48:23.661Z,101915.30
2019-05-01T09:51:00.890Z,101921.48
2019-05-01T09:53:46.251Z,101915.00
2019-05-01T09:56:25.537Z,101904.94
2019-05-01T09:58:52.598Z,101904.94
2019-05-01T10:01:24.613Z,101913.21
2019-05-01T10:03:49.395Z,101913.20
2019-05-01T10:06:18.851Z,101909.39
2019-05-01T10:08:46.018Z,101904.55
2019-05-01T10:11:13.036Z,101914.95
2019-05-01T10:13:42.879Z,101914.61
2019-05-01T10:16:12.477Z,101911.34
2019-05-01T10:18:39.560Z,101904.83
2019-05-01T10:21:06.629Z,101904.83
2019-05-01T10:23:33.710Z,101901.86
2019-05-01T10:26:02.695Z,101896.52
2019-05-01T10:28:45.029Z,101896.47
2019-05-01T10:31:17.929Z,101893.17
2019-05-01T10:33:46.196Z,101893.17
2019-05-01T10:36:32.956Z,101886.86
2019-05-01T10:39:00.123Z,101886.86
2019-05-01T10:41:27.298Z,101889.70
2019-05-01T10:43:54.333Z,101889.70
2019-05-01T10:46:21.438Z,101883.25
2019-05-01T10:48:48.767Z,101886.64
2019-05-01T10:51:27.987Z,101886.73
2019-05-01T10:53:55.039Z,101887.16
2019-05-01T10:56:22.384Z,101887.16
2019-05-01T10:58:49.449Z,101881.63
2019-05-01T11:01:22.562Z,101884.91
2019-05-01T11:03:52.177Z,101883.80
2019-05-01T11:06:20.135Z,101884.48
2019-05-01T11:08:47.164Z,101884.48
2019-05-01T11:11:14.276Z,101870.78
2019-05-01T11:13:41.319Z,101870.78
2019-05-01T11:16:22.611Z,101870.35
2019-05-01T11:18:49.699Z,101871.77
2019-05-01T11:21:16.839Z,101865.46
2019-05-01T11:23:43.963Z,101863.98
2019-05-01T11:26:11.003Z,101869.97
2019-05-01T11:28:38.047Z,101858.89
2019-05-01T11:31:06.498Z,101858.89
2019-05-01T11:33:58.771Z,101857.13
2019-05-01T11:36:44.795Z,101860.25
2019-05-01T11:39:26.362Z,101816.53
2019-05-01T11:41:58.087Z,101853.50
2019-05-01T11:44:32.046Z,101860.66
2019-05-01T11:46:59.270Z,101862.95
2019-05-01T11:49:26.332Z,101857.45
2019-05-01T11:51:53.371Z,101856.05
2019-05-01T11:54:20.435Z,101854.19
2019-05-01T11:56:47.506Z,101854.19
2019-05-01T11:59:14.600Z,101852.40
2019-05-01T12:01:41.648Z,101854.19
2019-05-01T12:04:08.710Z,101850.52
2019-05-01T12:06:35.774Z,101848.67
2019-05-01T12:09:05.133Z,101849.84
2019-05-01T12:11:34.168Z,101849.84
2019-05-01T12:14:01.281Z,101846.87
2019-05-01T12:16:46.815Z,101845.67
2019-05-01T12:19:14.083Z,101834.11
2019-05-01T12:21:41.103Z,101845.36
2019-05-01T12:24:08.144Z,101845.36
2019-05-01T12:26:35.822Z,101828.96
2019-05-01T12:29:07.183Z,101828.96
2019-05-01T12:31:34.236Z,101829.50
2019-05-01T12:34:01.294Z,101829.50
2019-05-01T12:36:36.117Z,101830.70
2019-05-01T12:38:57.452Z,101826.78
2019-05-01T12:41:31.270Z,101832.25
2019-05-01T12:43:58.310Z,101825.31
2019-05-01T12:46:49.548Z,101821.35
2019-05-01T12:49:16.621Z,101823.41
2019-05-01T12:51:45.610Z,101816.37
2019-05-01T12:54:23.347Z,101823.05
2019-05-01T12:56:53.948Z,101812.54
2019-05-01T12:59:21.267Z,101819.72
2019-05-01T13:01:48.351Z,101818.02
2019-05-01T13:04:16.783Z,101818.02
2019-05-01T13:06:49.569Z,101815.91
2019-05-01T13:09:12.990Z,101808.58
2019-05-01T13:11:40.073Z,101808.42
2019-05-01T13:14:07.286Z,101809.16
2019-05-01T13:16:34.364Z,101804.20
2019-05-01T13:19:01.421Z,101803.42
2019-05-01T13:21:30.721Z,101794.38
2019-05-01T13:23:57.763Z,101794.38
2019-05-01T13:26:43.437Z,101799.80
2019-05-01T13:29:24.581Z,101799.34
2019-05-01T13:32:09.962Z,101787.89
2019-05-01T13:34:37.066Z,101787.89
2019-05-01T13:37:04.365Z,101774.70
2019-05-01T13:39:31.527Z,101784.17
2019-05-01T13:41:58.574Z,101770.38
2019-05-01T13:44:25.608Z,101770.38
2019-05-01T13:46:52.701Z,101779.31
2019-05-01T13:49:19.736Z,101770.50
2019-05-01T13:51:46.808Z,101769.96
2019-05-01T13:54:13.900Z,101770.03
2019-05-01T13:56:40.949Z,101767.12
2019-05-01T13:59:11.542Z,101766.53
2019-05-01T14:01:38.606Z,101761.98
2019-05-01T14:04:05.843Z,101756.21
2019-05-01T14:06:32.985Z,101756.05
2019-05-01T14:09:00.390Z,101751.28
2019-05-01T14:11:27.426Z,101738.98
2019-05-01T14:13:54.484Z,101748.67
2019-05-01T14:16:21.583Z,101745.53
2019-05-01T14:18:48.650Z,101738.94
2019-05-01T14:21:32.951Z,101740.20
2019-05-01T14:24:29.058Z,101737.36
2019-05-01T14:26:56.513Z,101736.66
2019-05-01T14:29:23.571Z,101728.91
2019-05-01T14:31:52.467Z,101728.91
2019-05-01T14:34:19.577Z,101730.91
2019-05-01T14:36:46.839Z,101722.33
2019-05-01T14:39:14.279Z,101722.33
2019-05-01T15:30:55.869Z,101679.06
2019-05-01T15:33:24.854Z,101682.23
2019-05-01T15:35:51.838Z,101677.97
2019-05-01T15:38:18.884Z,101684.48
2019-05-01T15:40:57.503Z,101674.32
2019-05-01T15:43:32.580Z,101670.92
2019-05-01T15:46:02.369Z,101674.88
2019-05-01T15:48:29.351Z,101670.75
2019-05-01T15:51:02.205Z,101669.62
2019-05-01T15:53:31.470Z,101668.35
2019-05-01T15:55:58.427Z,101670.38
2019-05-01T15:58:31.821Z,101668.05
2019-05-01T16:00:58.814Z,101666.20
2019-05-01T16:03:25.766Z,101667.91
2019-05-01T16:05:52.893Z,101665.30
2019-05-01T16:08:19.872Z,101665.30
2019-05-01T16:10:55.437Z,101659.64
2019-05-01T16:13:22.445Z,101666.00
2019-05-01T16:15:51.749Z,101666.72
2019-05-01T16:18:18.747Z,101644.59
2019-05-01T16:20:49.815Z,101652.62
2019-05-01T16:23:16.787Z,101652.62
2019-05-01T16:25:48.764Z,101651.38
2019-05-01T16:28:20.812Z,101649.61
2019-05-01T16:30:50.211Z,101655.66
2019-05-01T16:33:17.262Z,101644.53
2019-05-01T16:35:44.297Z,101644.53
2019-05-01T16:38:23.581Z,101650.34
2019-05-01T16:41:01.056Z,101650.34
2019-05-01T16:43:30.338Z,101643.80
2019-05-01T16:45:59.791Z,101637.59
2019-05-01T16:48:26.722Z,101637.59
2019-05-01T16:50:57.309Z,101643.80
2019-05-01T16:53:25.573Z,101643.06
2019-05-01T16:55:52.593Z,101635.89
2019-05-01T16:58:22.092Z,101635.89
2019-05-01T17:00:58.903Z,101632.75
2019-05-01T17:03:34.111Z,101628.95
2019-05-01T17:06:20.893Z,101630.69
2019-05-01T17:08:51.642Z,101630.69
2019-05-01T17:11:21.280Z,101625.22
2019-05-01T17:13:48.266Z,101619.38
2019-05-01T17:16:15.313Z,101618.63
2019-05-01T17:18:42.291Z,101606.93
2019-05-01T17:21:09.281Z,101611.42
2019-05-01T17:23:36.227Z,101600.66
2019-05-01T17:26:03.225Z,101598.02
2019-05-01T17:28:32.679Z,101598.17
2019-05-01T17:31:02.011Z,101602.13
2019-05-01T17:33:34.382Z,101600.81
2019-05-01T17:36:01.346Z,101600.81
2019-05-01T17:38:31.385Z,101598.17
2019-05-01T17:41:00.185Z,101602.25
2019-05-01T17:43:27.193Z,101602.25
2019-05-01T17:45:54.144Z,101597.09
2019-05-01T17:48:28.864Z,101598.55
2019-05-01T17:50:55.060Z,101593.02
2019-05-01T17:53:22.523Z,101585.56
2019-05-01T17:55:49.532Z,101585.56
2019-05-01T17:58:16.547Z,101589.40
2019-05-01T18:01:06.260Z,101600.88
2019-05-01T18:03:44.591Z,101593.94
2019-05-01T18:06:17.210Z,101590.72
2019-05-01T18:08:44.155Z,101590.95
2019-05-01T18:11:14.170Z,101588.40
2019-05-01T18:13:43.815Z,101592.78
2019-05-01T18:16:12.432Z,101592.36
2019-05-01T18:18:40.542Z,101593.25
2019-05-01T18:21:09.609Z,101592.24
2019-05-01T18:24:23.064Z,101594.48
2019-05-01T18:27:22.615Z,101587.98
2019-05-01T18:29:52.058Z,101586.14
2019-05-01T18:32:36.427Z,101582.88
2019-05-01T18:35:09.003Z,101587.05
2019-05-01T18:37:55.106Z,101584.40
2019-05-01T18:40:34.135Z,101578.06
2019-05-01T18:43:05.223Z,101571.92
2019-05-01T18:45:57.261Z,101577.81
2019-05-01T18:48:27.682Z,101571.70
2019-05-01T18:50:57.011Z,101579.01
2019-05-01T18:53:32.218Z,101579.01
2019-05-01T18:56:01.347Z,101569.89
2019-05-01T18:58:28.073Z,101567.08
2019-05-01T19:00:55.658Z,101567.66
2019-05-01T19:03:22.999Z,101570.13
2019-05-01T19:05:49.983Z,101566.09
2019-05-01T19:08:17.121Z,101565.47
2019-05-01T19:10:44.563Z,101565.47
2019-05-01T19:13:11.536Z,101565.55
2019-05-01T19:15:39.941Z,101564.89
2019-05-01T19:18:11.644Z,101566.22
2019-05-01T19:20:38.568Z,101566.78
2019-05-01T19:23:08.238Z,101557.02
2019-05-01T19:25:39.520Z,101562.30
2019-05-01T19:28:08.400Z,101561.52
2019-05-01T19:30:35.729Z,101560.20
2019-05-01T19:33:04.284Z,101554.12
2019-05-01T19:35:34.275Z,101557.22
2019-05-01T19:38:02.963Z,101563.36
2019-05-01T19:40:32.590Z,101562.03
2019-05-01T19:43:02.139Z,101560.50
2019-05-01T19:45:29.222Z,101558.29
2019-05-01T19:47:59.816Z,101560.83
2019-05-01T19:50:26.776Z,101547.41
2019-05-01T19:52:55.402Z,101552.17
2019-05-01T19:55:24.008Z,101552.70
2019-05-01T19:57:52.760Z,101552.37
2019-05-01T20:00:49.518Z,101546.56
2019-05-01T20:03:20.451Z,101545.02
2019-05-01T20:05:49.686Z,101538.42
2019-05-01T20:08:16.680Z,101540.20
2019-05-01T20:10:43.641Z,101544.23
2019-05-01T20:13:12.318Z,101536.92
2019-05-01T20:15:41.863Z,101540.23
2019-05-01T20:18:09.212Z,101538.98
2019-05-01T20:20:36.174Z,101531.14
2019-05-01T20:23:03.178Z,101531.86
2019-05-01T20:25:32.404Z,101534.86
2019-05-01T20:27:59.359Z,101536.26
2019-05-01T20:30:26.362Z,101530.77
2019-05-01T20:32:53.380Z,101532.47
2019-05-01T20:35:23.960Z,101529.39
2019-05-01T20:37:49.237Z,101522.24
2019-05-01T20:40:19.628Z,101527.39
2019-05-01T20:42:49.599Z,101516.61
2019-05-01T20:45:18.330Z,101513.23
2019-05-01T20:47:48.261Z,101513.41
2019-05-01T20:50:15.720Z,101514.20
2019-05-01T20:52:43.969Z,101495.57
2019-05-01T20:55:10.984Z,101495.57
2019-05-01T20:57:40.076Z,101506.75
2019-05-01T21:00:11.171Z,101498.16
2019-05-01T21:02:38.910Z,101501.27
2019-05-01T21:05:26.146Z,101485.55
2019-05-01T21:08:07.113Z,101483.18
2019-05-01T21:10:50.519Z,101483.18
2019-05-01T21:13:17.797Z,101481.94
2019-05-01T21:15:47.413Z,101486.47
2019-05-01T21:18:20.990Z,101481.95
2019-05-01T21:20:48.144Z,101483.61
2019-05-01T21:23:19.388Z,101479.42
2019-05-01T21:25:46.372Z,101467.73
2019-05-01T21:28:14.185Z,101467.73
2019-05-01T21:30:47.446Z,101468.81
2019-05-01T21:33:14.643Z,101471.88
2019-05-01T21:35:41.586Z,101471.88
2019-05-01T21:38:10.007Z,101458.83
2019-05-01T21:40:40.376Z,101458.83
2019-05-01T21:43:08.373Z,101456.42
2019-05-01T21:45:40.675Z,101459.98
2019-05-01T21:48:09.826Z,101447.44
2019-05-01T21:50:39.116Z,101448.53
2019-05-01T21:53:07.118Z,101452.02
2019-05-01T21:55:40.190Z,101450.66
2019-05-01T21:58:07.141Z,101452.02
2019-05-01T22:00:39.858Z,101445.55
2019-05-01T22:03:07.050Z,101445.55
2019-05-01T22:05:34.873Z,101448.48
2019-05-01T22:08:03.899Z,101442.48
2019-05-01T22:10:51.368Z,101439.81
2019-05-01T22:13:08.381Z,101430.79
2019-05-01T22:15:42.103Z,101437.61
2019-05-01T22:18:17.436Z,101432.27
2019-05-01T22:20:49.096Z,101433.81
2019-05-01T22:23:21.906Z,101427.55
2019-05-01T22:25:49.383Z,101421.88
2019-05-01T22:28:27.915Z,101423.36
2019-05-01T22:31:23.440Z,101416.23
2019-05-01T22:33:54.278Z,101419.95
2019-05-01T22:36:21.231Z,101414.80
2019-05-01T22:38:48.128Z,101408.26
2019-05-01T22:41:17.164Z,101400.41
2019-05-01T22:43:46.524Z,101402.34
2019-05-01T22:46:25.079Z,101400.05
2019-05-01T22:48:53.137Z,101388.25
2019-05-01T22:51:22.961Z,101394.52
2019-05-01T22:53:55.951Z,101394.52
2019-05-01T22:56:30.967Z,101381.39
2019-05-01T22:58:57.944Z,101386.19
2019-05-01T23:01:26.967Z,101383.80
2019-05-01T23:03:58.702Z,101380.81
2019-05-01T23:06:31.985Z,101377.83
2019-05-01T23:08:58.953Z,101377.22
2019-05-01T23:11:28.024Z,101376.98
2019-05-01T23:13:57.887Z,101376.27
2019-05-01T23:16:31.701Z,101368.73
2019-05-01T23:18:58.665Z,101364.28
2019-05-01T23:21:29.163Z,101364.28
2019-05-01T23:24:01.972Z,101362.07
2019-05-01T23:26:31.241Z,101354.83
2019-05-01T23:28:58.218Z,101352.50
2019-05-01T23:31:27.763Z,101350.17
2019-05-01T23:34:03.350Z,101353.75
2019-05-01T23:36:32.664Z,101345.27
2019-05-01T23:38:59.609Z,101347.17
2019-05-01T23:41:44.724Z,101348.45
2019-05-01T23:43:58.270Z,101344.96
2019-05-01T23:46:30.718Z,101331.66
2019-05-01T23:48:57.719Z,101331.66
2019-05-01T23:51:29.899Z,101323.14
2019-05-01T23:53:57.114Z,101323.25
2019-05-01T23:56:24.120Z,101321.32
2019-05-01T23:58:51.104Z,101314.73
